sensor_id;sensor_type;location;lat;lon;timestamp;P1;durP1;ratioP1;P2;durP2;ratioP2
5008;SDS011;2523;51.058;6.922;2023-03-04T00:02:17;0.30;;;0.20;;
5008;SDS011;2523;51.058;6.922;2023-03-04T00:04:43;0.30;;;0.20;;
5008;SDS011;2523;51.058;6.922;2023-03-04T00:07:08;0.30;;;0.20;;
5008;SDS011;2523;51.058;6.922;2023-03-04T00:09:34;0.30;;;0.20;;
5008;SDS011;2523;51.058;6.922;2023-03-04T00:12:00;0.30;;;0.20;;
5008;SDS011;2523;51.058;6.922;2023-03-04T00:14:25;0.30;;;0.20;;
5008;SDS011;2523;51.058;6.922;2023-03-04T00:16:51;0.30;;;0.20;;
5008;SDS011;2523;51.058;6.922;2023-03-04T00:19:16;0.30;;;0.20;;
5008;SDS011;2523;51.058;6.922;2023-03-04T00:21:42;0.30;;;0.20;;
5008;SDS011;2523;51.058;6.922;2023-03-04T00:24:07;1.17;;;1.10;;
5008;SDS011;2523;51.058;6.922;2023-03-04T00:26:33;0.80;;;0.80;;
5008;SDS011;2523;51.058;6.922;2023-03-04T00:28:58;0.30;;;0.20;;
5008;SDS011;2523;51.058;6.922;2023-03-04T00:31:24;0.43;;;0.43;;
5008;SDS011;2523;51.058;6.922;2023-03-04T00:33:49;0.30;;;0.30;;
5008;SDS011;2523;51.058;6.922;2023-03-04T00:36:15;0.30;;;0.20;;
5008;SDS011;2523;51.058;6.922;2023-03-04T00:38:41;0.30;;;0.20;;
5008;SDS011;2523;51.058;6.922;2023-03-04T00:41:06;0.47;;;0.47;;
5008;SDS011;2523;51.058;6.922;2023-03-04T00:43:32;0.30;;;0.20;;
5008;SDS011;2523;51.058;6.922;2023-03-04T00:45:57;0.30;;;0.20;;
5008;SDS011;2523;51.058;6.922;2023-03-04T00:48:23;0.30;;;0.20;;
5008;SDS011;2523;51.058;6.922;2023-03-04T00:50:49;0.30;;;0.20;;
5008;SDS011;2523;51.058;6.922;2023-03-04T00:53:17;0.30;;;0.20;;
5008;SDS011;2523;51.058;6.922;2023-03-04T00:55:43;0.50;;;0.50;;
5008;SDS011;2523;51.058;6.922;2023-03-04T00:58:08;0.30;;;0.20;;
5008;SDS011;2523;51.058;6.922;2023-03-04T01:00:33;0.30;;;0.20;;
5008;SDS011;2523;51.058;6.922;2023-03-04T01:02:59;0.30;;;0.20;;
5008;SDS011;2523;51.058;6.922;2023-03-04T01:05:25;0.40;;;0.30;;
5008;SDS011;2523;51.058;6.922;2023-03-04T01:07:50;0.30;;;0.20;;
5008;SDS011;2523;51.058;6.922;2023-03-04T01:10:16;0.50;;;0.50;;
5008;SDS011;2523;51.058;6.922;2023-03-04T01:12:41;0.30;;;0.20;;
5008;SDS011;2523;51.058;6.922;2023-03-04T01:15:08;0.30;;;0.20;;
5008;SDS011;2523;51.058;6.922;2023-03-04T01:17:35;0.30;;;0.20;;
5008;SDS011;2523;51.058;6.922;2023-03-04T01:20:00;0.30;;;0.20;;
5008;SDS011;2523;51.058;6.922;2023-03-04T01:22:26;0.30;;;0.20;;
5008;SDS011;2523;51.058;6.922;2023-03-04T01:24:52;0.30;;;0.20;;
5008;SDS011;2523;51.058;6.922;2023-03-04T01:27:17;0.30;;;0.20;;
5008;SDS011;2523;51.058;6.922;2023-03-04T01:29:43;0.30;;;0.20;;
5008;SDS011;2523;51.058;6.922;2023-03-04T01:32:08;0.30;;;0.30;;
5008;SDS011;2523;51.058;6.922;2023-03-04T01:34:34;0.30;;;0.20;;
5008;SDS011;2523;51.058;6.922;2023-03-04T01:37:00;0.30;;;0.20;;
5008;SDS011;2523;51.058;6.922;2023-03-04T01:39:25;0.30;;;0.20;;
5008;SDS011;2523;51.058;6.922;2023-03-04T01:41:51;0.30;;;0.20;;
5008;SDS011;2523;51.058;6.922;2023-03-04T01:44:17;0.30;;;0.20;;
5008;SDS011;2523;51.058;6.922;2023-03-04T01:46:45;0.30;;;0.20;;
5008;SDS011;2523;51.058;6.922;2023-03-04T01:49:13;0.30;;;0.20;;
5008;SDS011;2523;51.058;6.922;2023-03-04T01:51:46;0.97;;;0.70;;
5008;SDS011;2523;51.058;6.922;2023-03-04T01:54:13;0.30;;;0.20;;
5008;SDS011;2523;51.058;6.922;2023-03-04T01:56:40;0.30;;;0.20;;
5008;SDS011;2523;51.058;6.922;2023-03-04T01:59:09;0.30;;;0.20;;
5008;SDS011;2523;51.058;6.922;2023-03-04T02:01:40;0.30;;;0.30;;
5008;SDS011;2523;51.058;6.922;2023-03-04T02:04:09;0.30;;;0.20;;
5008;SDS011;2523;51.058;6.922;2023-03-04T02:06:36;0.30;;;0.30;;
5008;SDS011;2523;51.058;6.922;2023-03-04T02:09:03;0.30;;;0.20;;
5008;SDS011;2523;51.058;6.922;2023-03-04T02:11:29;0.30;;;0.20;;
5008;SDS011;2523;51.058;6.922;2023-03-04T02:13:56;0.30;;;0.20;;
5008;SDS011;2523;51.058;6.922;2023-03-04T02:16:22;0.30;;;0.20;;
5008;SDS011;2523;51.058;6.922;2023-03-04T02:18:47;0.30;;;0.20;;
5008;SDS011;2523;51.058;6.922;2023-03-04T02:21:29;0.30;;;0.20;;
5008;SDS011;2523;51.058;6.922;2023-03-04T02:26:53;0.30;;;0.20;;
5008;SDS011;2523;51.058;6.922;2023-03-04T02:29:18;0.30;;;0.20;;
5008;SDS011;2523;51.058;6.922;2023-03-04T02:31:48;1.37;;;1.17;;
5008;SDS011;2523;51.058;6.922;2023-03-04T02:34:17;0.30;;;0.20;;
5008;SDS011;2523;51.058;6.922;2023-03-04T02:36:45;0.30;;;0.20;;
5008;SDS011;2523;51.058;6.922;2023-03-04T02:41:45;0.30;;;0.20;;
5008;SDS011;2523;51.058;6.922;2023-03-04T02:44:15;0.30;;;0.30;;
5008;SDS011;2523;51.058;6.922;2023-03-04T02:46:46;0.30;;;0.20;;
5008;SDS011;2523;51.058;6.922;2023-03-04T02:49:13;0.30;;;0.20;;
5008;SDS011;2523;51.058;6.922;2023-03-04T02:51:38;0.40;;;0.40;;
5008;SDS011;2523;51.058;6.922;2023-03-04T02:54:11;0.30;;;0.20;;
5008;SDS011;2523;51.058;6.922;2023-03-04T02:56:46;0.30;;;0.20;;
5008;SDS011;2523;51.058;6.922;2023-03-04T02:59:16;0.37;;;0.37;;
5008;SDS011;2523;51.058;6.922;2023-03-04T03:01:42;0.30;;;0.20;;
5008;SDS011;2523;51.058;6.922;2023-03-04T03:04:07;0.30;;;0.20;;
5008;SDS011;2523;51.058;6.922;2023-03-04T03:06:33;0.30;;;0.20;;
5008;SDS011;2523;51.058;6.922;2023-03-04T03:08:59;0.30;;;0.30;;
5008;SDS011;2523;51.058;6.922;2023-03-04T03:11:25;0.30;;;0.20;;
5008;SDS011;2523;51.058;6.922;2023-03-04T03:13:50;0.30;;;0.20;;
5008;SDS011;2523;51.058;6.922;2023-03-04T03:16:16;0.30;;;0.30;;
5008;SDS011;2523;51.058;6.922;2023-03-04T03:18:41;0.30;;;0.20;;
5008;SDS011;2523;51.058;6.922;2023-03-04T03:21:07;0.30;;;0.20;;
5008;SDS011;2523;51.058;6.922;2023-03-04T03:23:33;0.30;;;0.20;;
5008;SDS011;2523;51.058;6.922;2023-03-04T03:25:59;0.30;;;0.20;;
5008;SDS011;2523;51.058;6.922;2023-03-04T03:28:24;0.30;;;0.20;;
5008;SDS011;2523;51.058;6.922;2023-03-04T03:30:50;0.30;;;0.20;;
5008;SDS011;2523;51.058;6.922;2023-03-04T03:33:15;0.30;;;0.20;;
5008;SDS011;2523;51.058;6.922;2023-03-04T03:35:41;0.30;;;0.20;;
5008;SDS011;2523;51.058;6.922;2023-03-04T03:38:07;0.30;;;0.20;;
5008;SDS011;2523;51.058;6.922;2023-03-04T03:40:32;0.60;;;0.60;;
5008;SDS011;2523;51.058;6.922;2023-03-04T03:42:58;0.30;;;0.20;;
5008;SDS011;2523;51.058;6.922;2023-03-04T03:45:23;0.30;;;0.20;;
5008;SDS011;2523;51.058;6.922;2023-03-04T03:47:49;1.37;;;1.27;;
5008;SDS011;2523;51.058;6.922;2023-03-04T03:50:14;0.90;;;0.90;;
5008;SDS011;2523;51.058;6.922;2023-03-04T03:52:40;0.40;;;0.40;;
5008;SDS011;2523;51.058;6.922;2023-03-04T03:55:06;0.30;;;0.20;;
5008;SDS011;2523;51.058;6.922;2023-03-04T03:57:31;0.30;;;0.20;;
5008;SDS011;2523;51.058;6.922;2023-03-04T03:59:57;0.30;;;0.30;;
5008;SDS011;2523;51.058;6.922;2023-03-04T04:02:23;0.30;;;0.20;;
5008;SDS011;2523;51.058;6.922;2023-03-04T04:04:48;0.30;;;0.20;;
5008;SDS011;2523;51.058;6.922;2023-03-04T04:07:14;0.30;;;0.20;;
5008;SDS011;2523;51.058;6.922;2023-03-04T04:09:39;0.30;;;0.20;;
5008;SDS011;2523;51.058;6.922;2023-03-04T04:12:05;0.30;;;0.20;;
5008;SDS011;2523;51.058;6.922;2023-03-04T04:14:31;0.30;;;0.20;;
5008;SDS011;2523;51.058;6.922;2023-03-04T04:16:57;0.30;;;0.20;;
5008;SDS011;2523;51.058;6.922;2023-03-04T04:19:23;0.30;;;0.20;;
5008;SDS011;2523;51.058;6.922;2023-03-04T04:21:49;0.30;;;0.20;;
5008;SDS011;2523;51.058;6.922;2023-03-04T04:24:15;0.30;;;0.20;;
5008;SDS011;2523;51.058;6.922;2023-03-04T04:26:41;0.30;;;0.20;;
5008;SDS011;2523;51.058;6.922;2023-03-04T04:29:07;0.30;;;0.30;;
5008;SDS011;2523;51.058;6.922;2023-03-04T04:31:34;0.40;;;0.40;;
5008;SDS011;2523;51.058;6.922;2023-03-04T04:34:00;0.30;;;0.20;;
5008;SDS011;2523;51.058;6.922;2023-03-04T04:36:26;0.30;;;0.20;;
5008;SDS011;2523;51.058;6.922;2023-03-04T04:38:51;0.30;;;0.20;;
5008;SDS011;2523;51.058;6.922;2023-03-04T04:41:18;0.30;;;0.20;;
5008;SDS011;2523;51.058;6.922;2023-03-04T04:43:56;0.30;;;0.20;;
5008;SDS011;2523;51.058;6.922;2023-03-04T04:46:21;0.30;;;0.20;;
5008;SDS011;2523;51.058;6.922;2023-03-04T04:48:47;0.30;;;0.20;;
5008;SDS011;2523;51.058;6.922;2023-03-04T04:51:14;0.30;;;0.20;;
5008;SDS011;2523;51.058;6.922;2023-03-04T04:53:39;0.30;;;0.20;;
5008;SDS011;2523;51.058;6.922;2023-03-04T04:56:08;0.30;;;0.20;;
5008;SDS011;2523;51.058;6.922;2023-03-04T04:58:39;0.30;;;0.20;;
5008;SDS011;2523;51.058;6.922;2023-03-04T05:01:05;0.30;;;0.20;;
5008;SDS011;2523;51.058;6.922;2023-03-04T05:03:32;0.60;;;0.60;;
5008;SDS011;2523;51.058;6.922;2023-03-04T05:05:58;0.30;;;0.20;;
5008;SDS011;2523;51.058;6.922;2023-03-04T05:08:23;0.30;;;0.20;;
5008;SDS011;2523;51.058;6.922;2023-03-04T05:10:49;0.30;;;0.20;;
5008;SDS011;2523;51.058;6.922;2023-03-04T05:13:15;0.30;;;0.20;;
5008;SDS011;2523;51.058;6.922;2023-03-04T05:15:41;0.30;;;0.20;;
5008;SDS011;2523;51.058;6.922;2023-03-04T05:18:06;0.30;;;0.20;;
5008;SDS011;2523;51.058;6.922;2023-03-04T05:20:32;0.30;;;0.20;;
5008;SDS011;2523;51.058;6.922;2023-03-04T05:22:57;0.30;;;0.20;;
5008;SDS011;2523;51.058;6.922;2023-03-04T05:25:23;0.30;;;0.20;;
5008;SDS011;2523;51.058;6.922;2023-03-04T05:27:49;0.30;;;0.20;;
5008;SDS011;2523;51.058;6.922;2023-03-04T05:30:14;0.30;;;0.20;;
5008;SDS011;2523;51.058;6.922;2023-03-04T05:32:40;0.30;;;0.20;;
5008;SDS011;2523;51.058;6.922;2023-03-04T05:35:05;0.30;;;0.20;;
5008;SDS011;2523;51.058;6.922;2023-03-04T05:37:31;1.70;;;1.60;;
5008;SDS011;2523;51.058;6.922;2023-03-04T05:39:56;0.30;;;0.20;;
5008;SDS011;2523;51.058;6.922;2023-03-04T05:42:22;0.30;;;0.20;;
5008;SDS011;2523;51.058;6.922;2023-03-04T05:44:47;0.30;;;0.20;;
5008;SDS011;2523;51.058;6.922;2023-03-04T05:47:13;0.30;;;0.30;;
5008;SDS011;2523;51.058;6.922;2023-03-04T05:49:38;0.30;;;0.20;;
5008;SDS011;2523;51.058;6.922;2023-03-04T05:52:05;0.53;;;0.40;;
5008;SDS011;2523;51.058;6.922;2023-03-04T05:54:31;0.30;;;0.20;;
5008;SDS011;2523;51.058;6.922;2023-03-04T05:56:56;0.30;;;0.20;;
5008;SDS011;2523;51.058;6.922;2023-03-04T05:59:22;0.40;;;0.40;;
5008;SDS011;2523;51.058;6.922;2023-03-04T06:01:48;0.30;;;0.30;;
5008;SDS011;2523;51.058;6.922;2023-03-04T06:04:13;0.30;;;0.20;;
5008;SDS011;2523;51.058;6.922;2023-03-04T06:06:39;0.30;;;0.20;;
5008;SDS011;2523;51.058;6.922;2023-03-04T06:09:04;0.30;;;0.20;;
5008;SDS011;2523;51.058;6.922;2023-03-04T06:11:30;0.30;;;0.20;;
5008;SDS011;2523;51.058;6.922;2023-03-04T06:13:55;0.30;;;0.20;;
5008;SDS011;2523;51.058;6.922;2023-03-04T06:16:21;0.30;;;0.20;;
5008;SDS011;2523;51.058;6.922;2023-03-04T06:18:46;0.30;;;0.20;;
5008;SDS011;2523;51.058;6.922;2023-03-04T06:21:12;0.30;;;0.20;;
5008;SDS011;2523;51.058;6.922;2023-03-04T06:23:37;0.30;;;0.20;;
5008;SDS011;2523;51.058;6.922;2023-03-04T06:26:03;0.30;;;0.20;;
5008;SDS011;2523;51.058;6.922;2023-03-04T06:28:29;0.30;;;0.20;;
5008;SDS011;2523;51.058;6.922;2023-03-04T06:30:55;0.30;;;0.20;;
5008;SDS011;2523;51.058;6.922;2023-03-04T06:33:22;0.30;;;0.20;;
5008;SDS011;2523;51.058;6.922;2023-03-04T06:35:47;0.30;;;0.20;;
5008;SDS011;2523;51.058;6.922;2023-03-04T06:38:17;0.30;;;0.20;;
5008;SDS011;2523;51.058;6.922;2023-03-04T06:40:42;0.30;;;0.20;;
5008;SDS011;2523;51.058;6.922;2023-03-04T06:43:09;0.30;;;0.20;;
5008;SDS011;2523;51.058;6.922;2023-03-04T06:45:37;0.30;;;0.20;;
5008;SDS011;2523;51.058;6.922;2023-03-04T06:48:03;0.30;;;0.20;;
5008;SDS011;2523;51.058;6.922;2023-03-04T06:50:29;0.30;;;0.20;;
5008;SDS011;2523;51.058;6.922;2023-03-04T06:52:57;0.30;;;0.20;;
5008;SDS011;2523;51.058;6.922;2023-03-04T06:55:23;0.30;;;0.20;;
5008;SDS011;2523;51.058;6.922;2023-03-04T06:57:49;0.30;;;0.20;;
5008;SDS011;2523;51.058;6.922;2023-03-04T07:00:14;0.30;;;0.20;;
5008;SDS011;2523;51.058;6.922;2023-03-04T07:02:40;0.30;;;0.30;;
5008;SDS011;2523;51.058;6.922;2023-03-04T07:05:06;0.30;;;0.20;;
5008;SDS011;2523;51.058;6.922;2023-03-04T07:07:33;0.30;;;0.20;;
5008;SDS011;2523;51.058;6.922;2023-03-04T07:09:58;0.30;;;0.20;;
5008;SDS011;2523;51.058;6.922;2023-03-04T07:12:24;0.30;;;0.30;;
5008;SDS011;2523;51.058;6.922;2023-03-04T07:14:52;0.30;;;0.20;;
5008;SDS011;2523;51.058;6.922;2023-03-04T07:17:18;0.30;;;0.20;;
5008;SDS011;2523;51.058;6.922;2023-03-04T07:19:43;0.30;;;0.20;;
5008;SDS011;2523;51.058;6.922;2023-03-04T07:22:09;0.30;;;0.30;;
5008;SDS011;2523;51.058;6.922;2023-03-04T07:24:34;0.30;;;0.20;;
5008;SDS011;2523;51.058;6.922;2023-03-04T07:27:00;0.50;;;0.50;;
5008;SDS011;2523;51.058;6.922;2023-03-04T07:29:26;0.33;;;0.33;;
5008;SDS011;2523;51.058;6.922;2023-03-04T07:31:51;0.30;;;0.20;;
5008;SDS011;2523;51.058;6.922;2023-03-04T07:34:17;0.30;;;0.20;;
5008;SDS011;2523;51.058;6.922;2023-03-04T07:36:42;0.30;;;0.20;;
5008;SDS011;2523;51.058;6.922;2023-03-04T07:39:09;0.30;;;0.20;;
5008;SDS011;2523;51.058;6.922;2023-03-04T07:41:37;0.30;;;0.20;;
5008;SDS011;2523;51.058;6.922;2023-03-04T07:44:03;0.30;;;0.20;;
5008;SDS011;2523;51.058;6.922;2023-03-04T07:46:30;0.30;;;0.20;;
5008;SDS011;2523;51.058;6.922;2023-03-04T07:48:56;0.30;;;0.20;;
5008;SDS011;2523;51.058;6.922;2023-03-04T07:51:23;0.30;;;0.20;;
5008;SDS011;2523;51.058;6.922;2023-03-04T07:53:50;0.30;;;0.30;;
5008;SDS011;2523;51.058;6.922;2023-03-04T07:56:18;0.30;;;0.20;;
5008;SDS011;2523;51.058;6.922;2023-03-04T07:58:45;0.30;;;0.30;;
5008;SDS011;2523;51.058;6.922;2023-03-04T08:01:12;0.30;;;0.20;;
5008;SDS011;2523;51.058;6.922;2023-03-04T08:03:40;0.30;;;0.20;;
5008;SDS011;2523;51.058;6.922;2023-03-04T08:06:06;0.30;;;0.20;;
5008;SDS011;2523;51.058;6.922;2023-03-04T08:08:33;0.30;;;0.20;;
5008;SDS011;2523;51.058;6.922;2023-03-04T08:11:02;0.30;;;0.20;;
5008;SDS011;2523;51.058;6.922;2023-03-04T08:13:29;0.30;;;0.20;;
5008;SDS011;2523;51.058;6.922;2023-03-04T08:15:55;0.30;;;0.20;;
5008;SDS011;2523;51.058;6.922;2023-03-04T08:18:21;0.57;;;0.20;;
5008;SDS011;2523;51.058;6.922;2023-03-04T08:20:47;0.30;;;0.20;;
5008;SDS011;2523;51.058;6.922;2023-03-04T08:23:12;0.30;;;0.20;;
5008;SDS011;2523;51.058;6.922;2023-03-04T08:25:41;0.30;;;0.20;;
5008;SDS011;2523;51.058;6.922;2023-03-04T08:28:08;0.30;;;0.20;;
5008;SDS011;2523;51.058;6.922;2023-03-04T08:30:34;0.30;;;0.20;;
5008;SDS011;2523;51.058;6.922;2023-03-04T08:33:01;0.30;;;0.20;;
5008;SDS011;2523;51.058;6.922;2023-03-04T08:35:27;0.30;;;0.20;;
5008;SDS011;2523;51.058;6.922;2023-03-04T08:37:52;0.30;;;0.20;;
5008;SDS011;2523;51.058;6.922;2023-03-04T08:40:18;0.30;;;0.20;;
5008;SDS011;2523;51.058;6.922;2023-03-04T08:42:44;0.30;;;0.20;;
5008;SDS011;2523;51.058;6.922;2023-03-04T08:45:09;0.30;;;0.23;;
5008;SDS011;2523;51.058;6.922;2023-03-04T08:47:35;0.30;;;0.20;;
5008;SDS011;2523;51.058;6.922;2023-03-04T08:50:02;0.30;;;0.20;;
5008;SDS011;2523;51.058;6.922;2023-03-04T08:52:28;0.30;;;0.20;;
5008;SDS011;2523;51.058;6.922;2023-03-04T08:54:54;0.30;;;0.20;;
5008;SDS011;2523;51.058;6.922;2023-03-04T08:57:20;0.30;;;0.20;;
5008;SDS011;2523;51.058;6.922;2023-03-04T08:59:46;0.30;;;0.30;;
5008;SDS011;2523;51.058;6.922;2023-03-04T09:02:12;0.30;;;0.20;;
5008;SDS011;2523;51.058;6.922;2023-03-04T09:04:38;0.30;;;0.20;;
5008;SDS011;2523;51.058;6.922;2023-03-04T09:07:04;0.30;;;0.20;;
5008;SDS011;2523;51.058;6.922;2023-03-04T09:09:30;0.40;;;0.30;;
5008;SDS011;2523;51.058;6.922;2023-03-04T09:11:56;0.30;;;0.20;;
5008;SDS011;2523;51.058;6.922;2023-03-04T09:14:21;0.30;;;0.20;;
5008;SDS011;2523;51.058;6.922;2023-03-04T09:16:47;0.30;;;0.20;;
5008;SDS011;2523;51.058;6.922;2023-03-04T09:19:12;0.30;;;0.20;;
5008;SDS011;2523;51.058;6.922;2023-03-04T09:21:38;0.30;;;0.20;;
5008;SDS011;2523;51.058;6.922;2023-03-04T09:24:04;0.30;;;0.20;;
5008;SDS011;2523;51.058;6.922;2023-03-04T09:26:29;0.30;;;0.20;;
5008;SDS011;2523;51.058;6.922;2023-03-04T09:28:56;0.30;;;0.20;;
5008;SDS011;2523;51.058;6.922;2023-03-04T09:31:23;0.30;;;0.20;;
5008;SDS011;2523;51.058;6.922;2023-03-04T09:33:49;0.30;;;0.20;;
5008;SDS011;2523;51.058;6.922;2023-03-04T09:36:18;0.30;;;0.20;;
5008;SDS011;2523;51.058;6.922;2023-03-04T09:38:44;0.30;;;0.27;;
5008;SDS011;2523;51.058;6.922;2023-03-04T09:41:13;0.30;;;0.20;;
5008;SDS011;2523;51.058;6.922;2023-03-04T09:43:42;0.30;;;0.30;;
5008;SDS011;2523;51.058;6.922;2023-03-04T09:46:17;0.30;;;0.20;;
5008;SDS011;2523;51.058;6.922;2023-03-04T09:48:58;0.30;;;0.20;;
5008;SDS011;2523;51.058;6.922;2023-03-04T09:56:44;0.30;;;0.20;;
5008;SDS011;2523;51.058;6.922;2023-03-04T10:01:54;0.30;;;0.20;;
5008;SDS011;2523;51.058;6.922;2023-03-04T10:07:04;0.30;;;0.20;;
5008;SDS011;2523;51.058;6.922;2023-03-04T10:09:48;0.30;;;0.20;;
5008;SDS011;2523;51.058;6.922;2023-03-04T10:12:21;0.30;;;0.30;;
5008;SDS011;2523;51.058;6.922;2023-03-04T10:14:57;0.30;;;0.20;;
5008;SDS011;2523;51.058;6.922;2023-03-04T10:17:33;0.30;;;0.20;;
5008;SDS011;2523;51.058;6.922;2023-03-04T10:20:05;0.30;;;0.20;;
5008;SDS011;2523;51.058;6.922;2023-03-04T10:22:46;0.30;;;0.30;;
5008;SDS011;2523;51.058;6.922;2023-03-04T10:27:46;0.73;;;0.67;;
5008;SDS011;2523;51.058;6.922;2023-03-04T10:30:37;3.40;;;2.93;;
5008;SDS011;2523;51.058;6.922;2023-03-04T10:33:15;2.57;;;2.37;;
5008;SDS011;2523;51.058;6.922;2023-03-04T10:35:43;0.97;;;0.87;;
5008;SDS011;2523;51.058;6.922;2023-03-04T10:38:12;1.33;;;1.27;;
5008;SDS011;2523;51.058;6.922;2023-03-04T10:40:39;0.70;;;0.70;;
5008;SDS011;2523;51.058;6.922;2023-03-04T10:43:12;0.40;;;0.40;;
5008;SDS011;2523;51.058;6.922;2023-03-04T10:45:47;0.30;;;0.30;;
5008;SDS011;2523;51.058;6.922;2023-03-04T10:48:24;5.40;;;2.30;;
5008;SDS011;2523;51.058;6.922;2023-03-04T10:50:51;0.30;;;0.20;;
5008;SDS011;2523;51.058;6.922;2023-03-04T10:53:30;0.50;;;0.50;;
5008;SDS011;2523;51.058;6.922;2023-03-04T10:56:01;0.30;;;0.30;;
5008;SDS011;2523;51.058;6.922;2023-03-04T10:58:27;5.20;;;3.10;;
5008;SDS011;2523;51.058;6.922;2023-03-04T11:01:26;1.90;;;1.80;;
5008;SDS011;2523;51.058;6.922;2023-03-04T11:03:49;1.77;;;1.67;;
5008;SDS011;2523;51.058;6.922;2023-03-04T11:08:44;0.57;;;0.57;;
5008;SDS011;2523;51.058;6.922;2023-03-04T11:11:20;0.40;;;0.40;;
5008;SDS011;2523;51.058;6.922;2023-03-04T11:13:50;0.57;;;0.50;;
5008;SDS011;2523;51.058;6.922;2023-03-04T11:16:27;0.50;;;0.50;;
5008;SDS011;2523;51.058;6.922;2023-03-04T11:19:13;2.80;;;2.33;;
5008;SDS011;2523;51.058;6.922;2023-03-04T11:21:41;0.87;;;0.87;;
5008;SDS011;2523;51.058;6.922;2023-03-04T11:24:12;0.47;;;0.47;;
5008;SDS011;2523;51.058;6.922;2023-03-04T11:26:42;0.40;;;0.30;;
5008;SDS011;2523;51.058;6.922;2023-03-04T11:29:15;3.70;;;2.83;;
5008;SDS011;2523;51.058;6.922;2023-03-04T11:31:49;1.80;;;1.13;;
5008;SDS011;2523;51.058;6.922;2023-03-04T11:34:36;2.67;;;2.00;;
5008;SDS011;2523;51.058;6.922;2023-03-04T11:37:16;1.47;;;1.37;;
5008;SDS011;2523;51.058;6.922;2023-03-04T11:39:58;0.57;;;0.57;;
5008;SDS011;2523;51.058;6.922;2023-03-04T11:42:39;2.97;;;2.77;;
5008;SDS011;2523;51.058;6.922;2023-03-04T12:01:37;4.40;;;3.87;;
5008;SDS011;2523;51.058;6.922;2023-03-04T12:09:39;19.23;;;9.73;;
5008;SDS011;2523;51.058;6.922;2023-03-04T12:15:24;9.43;;;8.73;;
5008;SDS011;2523;51.058;6.922;2023-03-04T12:31:32;0.67;;;0.67;;
5008;SDS011;2523;51.058;6.922;2023-03-04T12:34:23;0.70;;;0.70;;
5008;SDS011;2523;51.058;6.922;2023-03-04T12:37:03;0.60;;;0.60;;
5008;SDS011;2523;51.058;6.922;2023-03-04T12:39:39;0.50;;;0.50;;
5008;SDS011;2523;51.058;6.922;2023-03-04T12:55:49;17.30;;;16.13;;
5008;SDS011;2523;51.058;6.922;2023-03-04T12:58:26;33.77;;;31.57;;
5008;SDS011;2523;51.058;6.922;2023-03-04T13:01:13;17.17;;;15.97;;
5008;SDS011;2523;51.058;6.922;2023-03-04T13:03:50;48.13;;;16.43;;
5008;SDS011;2523;51.058;6.922;2023-03-04T13:09:26;2.40;;;2.30;;
5008;SDS011;2523;51.058;6.922;2023-03-04T13:11:53;4.10;;;3.80;;
5008;SDS011;2523;51.058;6.922;2023-03-04T13:14:29;2.23;;;2.13;;
5008;SDS011;2523;51.058;6.922;2023-03-04T13:16:57;0.40;;;0.33;;
5008;SDS011;2523;51.058;6.922;2023-03-04T13:24:52;0.50;;;0.50;;
5008;SDS011;2523;51.058;6.922;2023-03-04T13:32:55;0.87;;;0.87;;
5008;SDS011;2523;51.058;6.922;2023-03-04T13:43:41;1.27;;;1.17;;
5008;SDS011;2523;51.058;6.922;2023-03-04T13:51:28;0.40;;;0.40;;
5008;SDS011;2523;51.058;6.922;2023-03-04T13:56:34;4.70;;;4.10;;
5008;SDS011;2523;51.058;6.922;2023-03-04T14:01:35;0.93;;;0.93;;
5008;SDS011;2523;51.058;6.922;2023-03-04T14:04:21;1.20;;;1.13;;
5008;SDS011;2523;51.058;6.922;2023-03-04T14:06:49;1.73;;;1.63;;
5008;SDS011;2523;51.058;6.922;2023-03-04T14:09:20;2.30;;;2.20;;
5008;SDS011;2523;51.058;6.922;2023-03-04T14:11:48;2.73;;;1.80;;
5008;SDS011;2523;51.058;6.922;2023-03-04T14:14:16;0.30;;;0.30;;
5008;SDS011;2523;51.058;6.922;2023-03-04T14:16:55;0.30;;;0.20;;
5008;SDS011;2523;51.058;6.922;2023-03-04T14:19:27;0.87;;;0.87;;
5008;SDS011;2523;51.058;6.922;2023-03-04T14:21:56;1.23;;;1.23;;
5008;SDS011;2523;51.058;6.922;2023-03-04T14:24:23;0.30;;;0.30;;
5008;SDS011;2523;51.058;6.922;2023-03-04T14:26:55;0.50;;;0.50;;
5008;SDS011;2523;51.058;6.922;2023-03-04T14:29:37;0.30;;;0.30;;
5008;SDS011;2523;51.058;6.922;2023-03-04T14:32:03;0.30;;;0.20;;
5008;SDS011;2523;51.058;6.922;2023-03-04T14:34:31;0.30;;;0.20;;
5008;SDS011;2523;51.058;6.922;2023-03-04T14:37:02;0.30;;;0.20;;
5008;SDS011;2523;51.058;6.922;2023-03-04T14:39:30;0.30;;;0.23;;
5008;SDS011;2523;51.058;6.922;2023-03-04T14:42:05;0.30;;;0.20;;
5008;SDS011;2523;51.058;6.922;2023-03-04T14:44:36;1.07;;;1.07;;
5008;SDS011;2523;51.058;6.922;2023-03-04T14:47:32;0.30;;;0.20;;
5008;SDS011;2523;51.058;6.922;2023-03-04T14:50:18;0.70;;;0.67;;
5008;SDS011;2523;51.058;6.922;2023-03-04T14:52:45;0.40;;;0.30;;
5008;SDS011;2523;51.058;6.922;2023-03-04T14:57:49;0.50;;;0.50;;
5008;SDS011;2523;51.058;6.922;2023-03-04T15:00:32;0.47;;;0.47;;
5008;SDS011;2523;51.058;6.922;2023-03-04T15:03:04;0.30;;;0.20;;
5008;SDS011;2523;51.058;6.922;2023-03-04T15:05:43;0.70;;;0.70;;
5008;SDS011;2523;51.058;6.922;2023-03-04T15:08:25;0.40;;;0.30;;
5008;SDS011;2523;51.058;6.922;2023-03-04T15:10:58;0.47;;;0.47;;
5008;SDS011;2523;51.058;6.922;2023-03-04T15:16:14;0.60;;;0.60;;
5008;SDS011;2523;51.058;6.922;2023-03-04T15:18:59;1.27;;;1.17;;
5008;SDS011;2523;51.058;6.922;2023-03-04T15:21:36;0.53;;;0.53;;
5008;SDS011;2523;51.058;6.922;2023-03-04T15:24:05;0.30;;;0.30;;
5008;SDS011;2523;51.058;6.922;2023-03-04T15:26:33;0.43;;;0.43;;
5008;SDS011;2523;51.058;6.922;2023-03-04T15:29:09;0.73;;;0.73;;
5008;SDS011;2523;51.058;6.922;2023-03-04T15:31:44;0.40;;;0.40;;
5008;SDS011;2523;51.058;6.922;2023-03-04T15:34:12;0.40;;;0.30;;
5008;SDS011;2523;51.058;6.922;2023-03-04T15:36:39;1.07;;;0.87;;
5008;SDS011;2523;51.058;6.922;2023-03-04T15:39:09;0.50;;;0.50;;
5008;SDS011;2523;51.058;6.922;2023-03-04T15:41:37;0.50;;;0.50;;
5008;SDS011;2523;51.058;6.922;2023-03-04T15:44:02;0.80;;;0.80;;
5008;SDS011;2523;51.058;6.922;2023-03-04T15:46:28;0.30;;;0.20;;
5008;SDS011;2523;51.058;6.922;2023-03-04T15:48:53;0.30;;;0.30;;
5008;SDS011;2523;51.058;6.922;2023-03-04T15:51:19;0.43;;;0.43;;
5008;SDS011;2523;51.058;6.922;2023-03-04T15:53:47;0.30;;;0.20;;
5008;SDS011;2523;51.058;6.922;2023-03-04T15:56:18;0.73;;;0.73;;
5008;SDS011;2523;51.058;6.922;2023-03-04T15:58:52;0.77;;;0.77;;
5008;SDS011;2523;51.058;6.922;2023-03-04T16:01:20;1.07;;;1.07;;
5008;SDS011;2523;51.058;6.922;2023-03-04T16:03:46;0.30;;;0.20;;
5008;SDS011;2523;51.058;6.922;2023-03-04T16:06:13;0.30;;;0.20;;
5008;SDS011;2523;51.058;6.922;2023-03-04T16:08:41;0.30;;;0.20;;
5008;SDS011;2523;51.058;6.922;2023-03-04T16:11:09;0.30;;;0.20;;
5008;SDS011;2523;51.058;6.922;2023-03-04T16:13:44;0.30;;;0.20;;
5008;SDS011;2523;51.058;6.922;2023-03-04T16:16:10;0.30;;;0.30;;
5008;SDS011;2523;51.058;6.922;2023-03-04T16:18:37;0.30;;;0.20;;
5008;SDS011;2523;51.058;6.922;2023-03-04T16:21:03;0.30;;;0.20;;
5008;SDS011;2523;51.058;6.922;2023-03-04T16:23:29;0.30;;;0.30;;
5008;SDS011;2523;51.058;6.922;2023-03-04T16:25:59;0.30;;;0.30;;
5008;SDS011;2523;51.058;6.922;2023-03-04T16:28:25;0.30;;;0.20;;
5008;SDS011;2523;51.058;6.922;2023-03-04T16:30:51;0.30;;;0.20;;
5008;SDS011;2523;51.058;6.922;2023-03-04T16:33:16;0.30;;;0.20;;
5008;SDS011;2523;51.058;6.922;2023-03-04T16:35:42;0.30;;;0.20;;
5008;SDS011;2523;51.058;6.922;2023-03-04T16:38:19;0.30;;;0.23;;
5008;SDS011;2523;51.058;6.922;2023-03-04T16:40:54;0.30;;;0.20;;
5008;SDS011;2523;51.058;6.922;2023-03-04T16:43:21;0.30;;;0.20;;
5008;SDS011;2523;51.058;6.922;2023-03-04T16:45:47;0.30;;;0.20;;
5008;SDS011;2523;51.058;6.922;2023-03-04T16:48:13;0.30;;;0.20;;
5008;SDS011;2523;51.058;6.922;2023-03-04T16:50:40;0.30;;;0.20;;
5008;SDS011;2523;51.058;6.922;2023-03-04T16:53:13;0.30;;;0.20;;
5008;SDS011;2523;51.058;6.922;2023-03-04T16:56:03;0.40;;;0.40;;
5008;SDS011;2523;51.058;6.922;2023-03-04T16:58:31;0.30;;;0.20;;
5008;SDS011;2523;51.058;6.922;2023-03-04T17:00:56;0.30;;;0.20;;
5008;SDS011;2523;51.058;6.922;2023-03-04T17:03:22;0.40;;;0.30;;
5008;SDS011;2523;51.058;6.922;2023-03-04T17:05:48;0.40;;;0.30;;
5008;SDS011;2523;51.058;6.922;2023-03-04T17:08:13;0.30;;;0.20;;
5008;SDS011;2523;51.058;6.922;2023-03-04T17:10:39;0.40;;;0.30;;
5008;SDS011;2523;51.058;6.922;2023-03-04T17:13:05;0.30;;;0.20;;
5008;SDS011;2523;51.058;6.922;2023-03-04T17:15:30;0.30;;;0.20;;